sensor_id;sensor_type;location;lat;lon;timestamp;pressure;altitude;pressure_sealevel;temperature;humidity
70684;BME280;58263;48.146;11.440;2023-12-28T00:01:58;95887.72;;;3.01;68.99
70684;BME280;58263;48.146;11.440;2023-12-28T00:04:23;95903.88;;;3.07;68.86
70684;BME280;58263;48.146;11.440;2023-12-28T00:06:48;95899.13;;;3.02;68.93
70684;BME280;58263;48.146;11.440;2023-12-28T00:09:13;95896.44;;;2.87;69.84
70684;BME280;58263;48.146;11.440;2023-12-28T00:11:39;95901.13;;;2.77;69.53
70684;BME280;58263;48.146;11.440;2023-12-28T00:14:04;95906.09;;;2.80;69.70
70684;BME280;58263;48.146;11.440;2023-12-28T00:16:31;95907.41;;;2.84;69.22
70684;BME280;58263;48.146;11.440;2023-12-28T00:18:57;95898.44;;;2.85;68.98
70684;BME280;58263;48.146;11.440;2023-12-28T00:21:23;95905.25;;;2.79;69.20
70684;BME280;58263;48.146;11.440;2023-12-28T00:23:48;95898.59;;;2.83;69.06
70684;BME280;58263;48.146;11.440;2023-12-28T00:26:13;95894.91;;;2.93;69.10
70684;BME280;58263;48.146;11.440;2023-12-28T00:28:38;95892.19;;;2.78;69.01
70684;BME280;58263;48.146;11.440;2023-12-28T00:31:04;95891.13;;;2.87;68.72
70684;BME280;58263;48.146;11.440;2023-12-28T00:33:29;95893.84;;;2.79;69.02
70684;BME280;58263;48.146;11.440;2023-12-28T00:35:54;95892.50;;;2.83;68.88
70684;BME280;58263;48.146;11.440;2023-12-28T00:38:19;95893.31;;;2.60;69.43
70684;BME280;58263;48.146;11.440;2023-12-28T00:40:45;95889.97;;;2.66;69.93
70684;BME280;58263;48.146;11.440;2023-12-28T00:43:10;95889.44;;;2.71;69.96
70684;BME280;58263;48.146;11.440;2023-12-28T00:45:35;95906.91;;;2.57;70.35
70684;BME280;58263;48.146;11.440;2023-12-28T00:48:00;95905.19;;;2.41;71.30
70684;BME280;58263;48.146;11.440;2023-12-28T00:50:26;95910.44;;;2.49;70.92
70684;BME280;58263;48.146;11.440;2023-12-28T00:52:56;95904.88;;;2.67;70.51
70684;BME280;58263;48.146;11.440;2023-12-28T00:55:21;95913.75;;;2.75;70.21
70684;BME280;58263;48.146;11.440;2023-12-28T00:57:47;95897.50;;;2.78;70.26
70684;BME280;58263;48.146;11.440;2023-12-28T01:00:12;95906.00;;;2.73;69.99
70684;BME280;58263;48.146;11.440;2023-12-28T01:02:37;95903.84;;;2.68;70.27
70684;BME280;58263;48.146;11.440;2023-12-28T01:05:03;95903.72;;;2.62;70.18
70684;BME280;58263;48.146;11.440;2023-12-28T01:07:29;95908.56;;;2.58;70.15
70684;BME280;58263;48.146;11.440;2023-12-28T01:09:54;95913.97;;;2.42;70.55
70684;BME280;58263;48.146;11.440;2023-12-28T01:12:19;95903.84;;;2.45;70.43
70684;BME280;58263;48.146;11.440;2023-12-28T01:14:45;95905.38;;;2.40;70.16
70684;BME280;58263;48.146;11.440;2023-12-28T01:17:10;95908.66;;;2.18;71.36
70684;BME280;58263;48.146;11.440;2023-12-28T01:19:35;95924.53;;;2.18;71.02
70684;BME280;58263;48.146;11.440;2023-12-28T01:22:00;95934.63;;;2.15;71.29
70684;BME280;58263;48.146;11.440;2023-12-28T01:24:26;95941.94;;;2.13;71.52
70684;BME280;58263;48.146;11.440;2023-12-28T01:26:51;95948.59;;;2.00;71.67
70684;BME280;58263;48.146;11.440;2023-12-28T01:29:17;95941.47;;;2.01;71.90
70684;BME280;58263;48.146;11.440;2023-12-28T01:31:42;95945.25;;;2.07;71.71
70684;BME280;58263;48.146;11.440;2023-12-28T01:34:07;95956.06;;;1.89;71.80
70684;BME280;58263;48.146;11.440;2023-12-28T01:36:34;95951.81;;;1.79;73.20
70684;BME280;58263;48.146;11.440;2023-12-28T01:38:59;95956.28;;;1.79;73.30
70684;BME280;58263;48.146;11.440;2023-12-28T01:41:24;95950.78;;;1.89;72.50
70684;BME280;58263;48.146;11.440;2023-12-28T01:43:50;95944.03;;;1.78;72.57
70684;BME280;58263;48.146;11.440;2023-12-28T01:46:17;95952.31;;;1.75;72.37
70684;BME280;58263;48.146;11.440;2023-12-28T01:48:44;95953.97;;;1.67;72.79
70684;BME280;58263;48.146;11.440;2023-12-28T01:51:12;95947.06;;;1.50;73.16
70684;BME280;58263;48.146;11.440;2023-12-28T01:53:39;95945.09;;;1.52;73.22
70684;BME280;58263;48.146;11.440;2023-12-28T01:56:05;95941.78;;;1.50;72.78
70684;BME280;58263;48.146;11.440;2023-12-28T01:58:33;95941.63;;;1.60;72.64
70684;BME280;58263;48.146;11.440;2023-12-28T02:01:00;95941.53;;;1.20;73.36
70684;BME280;58263;48.146;11.440;2023-12-28T02:03:26;95935.75;;;1.16;73.63
70684;BME280;58263;48.146;11.440;2023-12-28T02:05:52;95930.63;;;1.15;73.44
70684;BME280;58263;48.146;11.440;2023-12-28T02:08:17;95939.53;;;1.30;72.95
70684;BME280;58263;48.146;11.440;2023-12-28T02:10:43;95944.47;;;1.25;73.29
70684;BME280;58263;48.146;11.440;2023-12-28T02:13:08;95936.88;;;1.30;74.10
70684;BME280;58263;48.146;11.440;2023-12-28T02:15:34;95947.09;;;1.33;73.21
70684;BME280;58263;48.146;11.440;2023-12-28T02:18:11;95949.25;;;1.46;73.16
70684;BME280;58263;48.146;11.440;2023-12-28T02:20:38;95947.41;;;1.47;72.88
70684;BME280;58263;48.146;11.440;2023-12-28T02:23:04;95948.09;;;1.41;72.95
70684;BME280;58263;48.146;11.440;2023-12-28T02:25:29;95952.56;;;1.40;73.29
70684;BME280;58263;48.146;11.440;2023-12-28T02:27:54;95943.47;;;1.34;72.89
70684;BME280;58263;48.146;11.440;2023-12-28T02:30:22;95945.63;;;1.23;72.69
70684;BME280;58263;48.146;11.440;2023-12-28T02:32:56;95952.91;;;1.21;73.44
70684;BME280;58263;48.146;11.440;2023-12-28T02:35:32;95951.78;;;1.15;73.65
70684;BME280;58263;48.146;11.440;2023-12-28T02:38:02;95951.59;;;1.08;73.73
70684;BME280;58263;48.146;11.440;2023-12-28T02:40:31;95953.28;;;1.01;73.92
70684;BME280;58263;48.146;11.440;2023-12-28T02:43:00;95949.63;;;0.94;73.95
70684;BME280;58263;48.146;11.440;2023-12-28T02:45:25;95951.59;;;1.00;74.09
70684;BME280;58263;48.146;11.440;2023-12-28T02:47:51;95942.03;;;1.07;73.91
70684;BME280;58263;48.146;11.440;2023-12-28T02:50:17;95945.81;;;1.05;73.96
70684;BME280;58263;48.146;11.440;2023-12-28T02:52:42;95949.44;;;0.95;74.57
70684;BME280;58263;48.146;11.440;2023-12-28T02:55:08;95950.94;;;0.98;75.10
70684;BME280;58263;48.146;11.440;2023-12-28T02:57:33;95949.16;;;0.90;75.38
70684;BME280;58263;48.146;11.440;2023-12-28T03:00:04;95952.09;;;0.95;74.97
70684;BME280;58263;48.146;11.440;2023-12-28T03:02:29;95941.53;;;1.04;74.23
70684;BME280;58263;48.146;11.440;2023-12-28T03:04:54;95946.16;;;0.93;74.63
70684;BME280;58263;48.146;11.440;2023-12-28T03:07:20;95945.66;;;0.81;75.05
70684;BME280;58263;48.146;11.440;2023-12-28T03:09:46;95940.53;;;0.80;74.89
70684;BME280;58263;48.146;11.440;2023-12-28T03:12:11;95944.34;;;0.86;74.98
70684;BME280;58263;48.146;11.440;2023-12-28T03:14:36;95939.72;;;0.79;74.65
70684;BME280;58263;48.146;11.440;2023-12-28T03:17:01;95933.13;;;0.75;74.62
70684;BME280;58263;48.146;11.440;2023-12-28T03:19:27;95938.88;;;0.79;74.45
70684;BME280;58263;48.146;11.440;2023-12-28T03:21:52;95944.00;;;0.72;74.52
70684;BME280;58263;48.146;11.440;2023-12-28T03:24:17;95936.56;;;0.67;74.59
70684;BME280;58263;48.146;11.440;2023-12-28T03:26:42;95936.41;;;0.69;74.71
70684;BME280;58263;48.146;11.440;2023-12-28T03:29:08;95934.09;;;0.74;74.41
70684;BME280;58263;48.146;11.440;2023-12-28T03:31:33;95933.78;;;0.86;73.98
70684;BME280;58263;48.146;11.440;2023-12-28T03:33:59;95938.88;;;0.79;74.17
70684;BME280;58263;48.146;11.440;2023-12-28T03:36:24;95927.69;;;0.69;74.36
70684;BME280;58263;48.146;11.440;2023-12-28T03:38:49;95927.16;;;0.73;74.67
70684;BME280;58263;48.146;11.440;2023-12-28T03:41:18;95940.53;;;0.63;75.09
70684;BME280;58263;48.146;11.440;2023-12-28T03:43:45;95931.28;;;0.67;74.98
70684;BME280;58263;48.146;11.440;2023-12-28T03:46:10;95931.97;;;0.70;74.68
70684;BME280;58263;48.146;11.440;2023-12-28T03:48:36;95934.91;;;0.50;75.02
70684;BME280;58263;48.146;11.440;2023-12-28T03:51:02;95930.44;;;0.42;75.70
70684;BME280;58263;48.146;11.440;2023-12-28T03:53:27;95935.44;;;0.70;72.82
70684;BME280;58263;48.146;11.440;2023-12-28T03:55:53;95935.25;;;0.96;71.69
70684;BME280;58263;48.146;11.440;2023-12-28T03:58:18;95945.81;;;1.13;70.97
70684;BME280;58263;48.146;11.440;2023-12-28T04:00:43;95949.91;;;1.32;68.81
70684;BME280;58263;48.146;11.440;2023-12-28T04:03:09;95951.06;;;1.46;68.41
70684;BME280;58263;48.146;11.440;2023-12-28T04:05:34;95944.09;;;1.61;66.84
70684;BME280;58263;48.146;11.440;2023-12-28T04:07:59;95948.41;;;1.62;67.84
70684;BME280;58263;48.146;11.440;2023-12-28T04:10:32;95939.09;;;1.75;65.73
70684;BME280;58263;48.146;11.440;2023-12-28T04:12:58;95954.63;;;1.78;66.98
70684;BME280;58263;48.146;11.440;2023-12-28T04:15:27;95952.63;;;1.80;67.36
70684;BME280;58263;48.146;11.440;2023-12-28T04:17:52;95957.09;;;1.79;67.51
70684;BME280;58263;48.146;11.440;2023-12-28T04:20:17;95952.47;;;1.81;67.95
70684;BME280;58263;48.146;11.440;2023-12-28T04:22:42;95957.59;;;1.83;67.58
70684;BME280;58263;48.146;11.440;2023-12-28T04:25:09;95956.78;;;1.74;68.98
70684;BME280;58263;48.146;11.440;2023-12-28T04:27:35;95953.31;;;1.74;68.90
70684;BME280;58263;48.146;11.440;2023-12-28T04:30:00;95956.13;;;1.72;68.33
70684;BME280;58263;48.146;11.440;2023-12-28T04:32:25;95955.28;;;1.72;68.37
70684;BME280;58263;48.146;11.440;2023-12-28T04:34:52;95962.59;;;1.69;68.54
70684;BME280;58263;48.146;11.440;2023-12-28T04:37:19;95955.00;;;1.66;68.14
70684;BME280;58263;48.146;11.440;2023-12-28T04:39:44;95958.66;;;1.57;67.99
70684;BME280;58263;48.146;11.440;2023-12-28T04:42:09;95967.91;;;1.53;68.73
70684;BME280;58263;48.146;11.440;2023-12-28T04:44:37;95961.94;;;1.59;68.77
70684;BME280;58263;48.146;11.440;2023-12-28T04:47:03;95960.47;;;1.48;69.02
70684;BME280;58263;48.146;11.440;2023-12-28T04:49:29;95958.69;;;1.41;69.37
70684;BME280;58263;48.146;11.440;2023-12-28T04:51:54;95972.88;;;1.40;69.65
70684;BME280;58263;48.146;11.440;2023-12-28T04:54:20;95958.00;;;1.47;69.45
70684;BME280;58263;48.146;11.440;2023-12-28T04:56:45;95962.94;;;1.50;69.91
70684;BME280;58263;48.146;11.440;2023-12-28T04:59:11;95967.06;;;1.52;70.09
70684;BME280;58263;48.146;11.440;2023-12-28T05:01:43;95962.94;;;1.50;70.39
70684;BME280;58263;48.146;11.440;2023-12-28T05:04:09;95957.50;;;1.51;70.01
70684;BME280;58263;48.146;11.440;2023-12-28T05:06:34;95963.09;;;1.48;70.12
70684;BME280;58263;48.146;11.440;2023-12-28T05:08:59;95953.56;;;1.31;69.81
70684;BME280;58263;48.146;11.440;2023-12-28T05:11:25;95964.25;;;1.46;69.81
70684;BME280;58263;48.146;11.440;2023-12-28T05:13:50;95970.75;;;1.43;70.39
70684;BME280;58263;48.146;11.440;2023-12-28T05:16:15;95970.88;;;1.42;69.63
70684;BME280;58263;48.146;11.440;2023-12-28T05:18:40;95973.38;;;1.43;70.53
70684;BME280;58263;48.146;11.440;2023-12-28T05:21:06;95973.22;;;1.37;70.58
70684;BME280;58263;48.146;11.440;2023-12-28T05:23:31;95983.25;;;1.49;70.12
70684;BME280;58263;48.146;11.440;2023-12-28T05:25:56;95984.44;;;1.47;69.88
70684;BME280;58263;48.146;11.440;2023-12-28T05:28:22;95987.06;;;1.55;69.68
70684;BME280;58263;48.146;11.440;2023-12-28T05:30:47;95995.31;;;1.52;69.40
70684;BME280;58263;48.146;11.440;2023-12-28T05:33:12;95995.31;;;1.60;68.65
70684;BME280;58263;48.146;11.440;2023-12-28T05:35:37;95991.69;;;1.61;69.63
70684;BME280;58263;48.146;11.440;2023-12-28T05:38:03;95991.69;;;1.61;68.70
70684;BME280;58263;48.146;11.440;2023-12-28T05:40:28;95991.16;;;1.66;69.47
70684;BME280;58263;48.146;11.440;2023-12-28T05:42:53;95990.69;;;1.62;69.46
70684;BME280;58263;48.146;11.440;2023-12-28T05:45:19;95994.97;;;1.55;69.97
70684;BME280;58263;48.146;11.440;2023-12-28T05:47:44;95996.97;;;1.61;70.28
70684;BME280;58263;48.146;11.440;2023-12-28T05:50:10;95994.53;;;1.43;69.09
70684;BME280;58263;48.146;11.440;2023-12-28T05:52:35;95993.50;;;1.52;69.14
70684;BME280;58263;48.146;11.440;2023-12-28T05:55:00;95990.53;;;1.31;69.92
70684;BME280;58263;48.146;11.440;2023-12-28T05:57:25;95989.56;;;1.40;69.67
70684;BME280;58263;48.146;11.440;2023-12-28T05:59:54;95998.31;;;1.41;69.75
70684;BME280;58263;48.146;11.440;2023-12-28T06:02:20;95988.38;;;1.51;69.79
70684;BME280;58263;48.146;11.440;2023-12-28T06:04:45;95989.06;;;1.37;70.11
70684;BME280;58263;48.146;11.440;2023-12-28T06:07:10;95986.44;;;1.37;69.40
70684;BME280;58263;48.146;11.440;2023-12-28T06:09:35;95979.50;;;1.27;69.77
70684;BME280;58263;48.146;11.440;2023-12-28T06:12:04;95984.78;;;1.27;69.39
70684;BME280;58263;48.146;11.440;2023-12-28T06:14:29;95991.56;;;1.38;69.71
70684;BME280;58263;48.146;11.440;2023-12-28T06:16:55;95994.03;;;1.23;70.14
70684;BME280;58263;48.146;11.440;2023-12-28T06:19:20;96001.13;;;1.31;69.10
70684;BME280;58263;48.146;11.440;2023-12-28T06:21:47;96001.63;;;1.18;69.65
70684;BME280;58263;48.146;11.440;2023-12-28T06:24:12;95995.84;;;1.06;69.92
70684;BME280;58263;48.146;11.440;2023-12-28T06:26:44;95995.00;;;1.30;69.40
70684;BME280;58263;48.146;11.440;2023-12-28T06:29:09;95990.06;;;1.11;70.03
70684;BME280;58263;48.146;11.440;2023-12-28T06:31:36;95984.97;;;1.09;69.04
70684;BME280;58263;48.146;11.440;2023-12-28T06:34:07;95991.06;;;1.18;69.45
70684;BME280;58263;48.146;11.440;2023-12-28T06:36:32;95987.44;;;1.19;68.76
70684;BME280;58263;48.146;11.440;2023-12-28T06:38:58;95987.25;;;1.12;69.07
70684;BME280;58263;48.146;11.440;2023-12-28T06:41:24;95988.41;;;1.10;69.83
70684;BME280;58263;48.146;11.440;2023-12-28T06:43:50;95991.75;;;1.12;69.85
70684;BME280;58263;48.146;11.440;2023-12-28T06:46:15;95994.22;;;1.13;69.09
70684;BME280;58263;48.146;11.440;2023-12-28T06:48:40;95989.75;;;1.14;70.20
70684;BME280;58263;48.146;11.440;2023-12-28T06:51:06;95995.69;;;1.16;69.34
70684;BME280;58263;48.146;11.440;2023-12-28T06:53:32;95991.41;;;1.15;69.63
70684;BME280;58263;48.146;11.440;2023-12-28T06:55:57;95999.66;;;1.20;68.99
70684;BME280;58263;48.146;11.440;2023-12-28T06:58:22;96000.47;;;1.12;69.31
70684;BME280;58263;48.146;11.440;2023-12-28T07:00:47;95997.03;;;1.12;68.86
70684;BME280;58263;48.146;11.440;2023-12-28T07:03:13;95993.88;;;1.08;69.48
70684;BME280;58263;48.146;11.440;2023-12-28T07:05:38;96004.78;;;1.13;69.09
70684;BME280;58263;48.146;11.440;2023-12-28T07:08:03;95990.72;;;1.05;69.46
70684;BME280;58263;48.146;11.440;2023-12-28T07:10:29;95993.88;;;1.16;69.29
70684;BME280;58263;48.146;11.440;2023-12-28T07:12:54;95989.41;;;1.17;68.96
70684;BME280;58263;48.146;11.440;2023-12-28T07:15:19;95985.78;;;1.01;69.17
70684;BME280;58263;48.146;11.440;2023-12-28T07:17:44;95986.75;;;1.00;68.89
70684;BME280;58263;48.146;11.440;2023-12-28T07:20:10;95985.28;;;1.14;68.64
70684;BME280;58263;48.146;11.440;2023-12-28T07:22:36;95981.81;;;1.06;68.23
70684;BME280;58263;48.146;11.440;2023-12-28T07:25:01;95981.66;;;1.15;67.97
70684;BME280;58263;48.146;11.440;2023-12-28T07:27:27;95980.50;;;1.18;67.89
70684;BME280;58263;48.146;11.440;2023-12-28T07:29:53;95989.72;;;1.22;68.54
70684;BME280;58263;48.146;11.440;2023-12-28T07:32:18;95979.84;;;1.24;68.35
70684;BME280;58263;48.146;11.440;2023-12-28T07:34:45;95989.09;;;1.20;69.04
70684;BME280;58263;48.146;11.440;2023-12-28T07:37:10;95993.06;;;1.16;68.83
70684;BME280;58263;48.146;11.440;2023-12-28T07:39:35;95991.06;;;1.18;69.21
70684;BME280;58263;48.146;11.440;2023-12-28T07:42:01;96000.31;;;1.30;69.10
70684;BME280;58263;48.146;11.440;2023-12-28T07:44:26;96005.91;;;1.35;69.11
70684;BME280;58263;48.146;11.440;2023-12-28T07:46:52;96011.19;;;1.44;69.32
70684;BME280;58263;48.146;11.440;2023-12-28T07:49:17;96006.56;;;1.62;69.32
70684;BME280;58263;48.146;11.440;2023-12-28T07:51:42;96004.53;;;1.73;68.26
70684;BME280;58263;48.146;11.440;2023-12-28T07:54:07;96010.47;;;1.83;66.99
70684;BME280;58263;48.146;11.440;2023-12-28T07:56:33;96006.81;;;2.00;66.57
70684;BME280;58263;48.146;11.440;2023-12-28T07:58:58;96012.03;;;2.17;66.39
70684;BME280;58263;48.146;11.440;2023-12-28T08:01:23;96009.00;;;2.28;66.16
70684;BME280;58263;48.146;11.440;2023-12-28T08:03:50;96005.16;;;2.39;66.78
70684;BME280;58263;48.146;11.440;2023-12-28T08:06:15;96011.72;;;2.51;65.43
70684;BME280;58263;48.146;11.440;2023-12-28T08:08:41;96019.56;;;2.68;67.29
70684;BME280;58263;48.146;11.440;2023-12-28T08:11:06;96014.03;;;2.78;66.63
70684;BME280;58263;48.146;11.440;2023-12-28T08:13:31;96012.50;;;2.83;67.43
70684;BME280;58263;48.146;11.440;2023-12-28T08:15:57;96009.66;;;2.93;65.57
70684;BME280;58263;48.146;11.440;2023-12-28T08:18:22;96010.91;;;3.06;66.30
70684;BME280;58263;48.146;11.440;2023-12-28T08:20:47;96008.75;;;3.24;63.97
70684;BME280;58263;48.146;11.440;2023-12-28T08:23:14;96006.63;;;3.43;62.85
70684;BME280;58263;48.146;11.440;2023-12-28T08:25:39;96007.75;;;3.63;62.42
70684;BME280;58263;48.146;11.440;2023-12-28T08:28:05;96006.41;;;3.82;61.77
70684;BME280;58263;48.146;11.440;2023-12-28T08:30:30;96012.38;;;3.99;61.79
70684;BME280;58263;48.146;11.440;2023-12-28T08:32:55;96013.66;;;4.18;61.65
70684;BME280;58263;48.146;11.440;2023-12-28T08:35:20;96020.00;;;4.32;60.53
70684;BME280;58263;48.146;11.440;2023-12-28T08:37:46;96024.25;;;4.48;61.01
70684;BME280;58263;48.146;11.440;2023-12-28T08:40:11;96024.22;;;4.63;60.43
70684;BME280;58263;48.146;11.440;2023-12-28T08:42:36;96014.56;;;4.77;58.73
70684;BME280;58263;48.146;11.440;2023-12-28T08:45:02;96012.78;;;4.99;57.66
70684;BME280;58263;48.146;11.440;2023-12-28T08:47:27;96007.66;;;5.19;58.80
70684;BME280;58263;48.146;11.440;2023-12-28T08:49:53;96010.31;;;5.41;56.63
70684;BME280;58263;48.146;11.440;2023-12-28T08:52:18;96006.75;;;5.55;56.29
70684;BME280;58263;48.146;11.440;2023-12-28T08:54:43;96008.94;;;5.73;56.27
70684;BME280;58263;48.146;11.440;2023-12-28T08:57:09;96008.88;;;5.95;55.57
70684;BME280;58263;48.146;11.440;2023-12-28T08:59:37;96007.59;;;6.13;55.24
70684;BME280;58263;48.146;11.440;2023-12-28T09:02:03;96020.38;;;6.24;56.18
70684;BME280;58263;48.146;11.440;2023-12-28T09:04:28;96022.88;;;6.32;56.93
70684;BME280;58263;48.146;11.440;2023-12-28T09:06:53;96015.97;;;6.45;55.57
70684;BME280;58263;48.146;11.440;2023-12-28T09:09:19;96009.03;;;6.57;54.82
70684;BME280;58263;48.146;11.440;2023-12-28T09:11:44;96012.59;;;6.77;53.20
70684;BME280;58263;48.146;11.440;2023-12-28T09:14:09;96007.13;;;6.92;53.50
70684;BME280;58263;48.146;11.440;2023-12-28T09:16:34;96013.16;;;7.15;51.09
70684;BME280;58263;48.146;11.440;2023-12-28T09:19:00;95992.84;;;7.47;49.40
70684;BME280;58263;48.146;11.440;2023-12-28T09:21:25;95993.69;;;7.68;48.80
70684;BME280;58263;48.146;11.440;2023-12-28T09:23:51;96006.63;;;7.91;46.73
70684;BME280;58263;48.146;11.440;2023-12-28T09:26:16;95996.66;;;8.32;43.50
70684;BME280;58263;48.146;11.440;2023-12-28T09:28:43;96002.19;;;8.57;43.27
70684;BME280;58263;48.146;11.440;2023-12-28T09:31:09;95999.25;;;8.72;42.96
70684;BME280;58263;48.146;11.440;2023-12-28T09:33:34;95985.94;;;8.97;41.48
70684;BME280;58263;48.146;11.440;2023-12-28T09:35:59;95983.63;;;9.07;40.98
70684;BME280;58263;48.146;11.440;2023-12-28T09:38:25;95971.88;;;9.40;40.01
70684;BME280;58263;48.146;11.440;2023-12-28T09:40:53;95968.06;;;9.55;40.35
70684;BME280;58263;48.146;11.440;2023-12-28T09:43:23;95968.72;;;9.75;38.82
70684;BME280;58263;48.146;11.440;2023-12-28T09:45:50;95971.59;;;9.99;38.10
70684;BME280;58263;48.146;11.440;2023-12-28T09:48:17;95971.47;;;10.12;37.89
70684;BME280;58263;48.146;11.440;2023-12-28T09:50:44;95963.41;;;10.12;37.86
70684;BME280;58263;48.146;11.440;2023-12-28T09:53:11;95971.50;;;10.31;37.75
70684;BME280;58263;48.146;11.440;2023-12-28T09:55:37;95973.84;;;10.46;37.24
70684;BME280;58263;48.146;11.440;2023-12-28T09:58:03;95973.31;;;10.56;36.40
70684;BME280;58263;48.146;11.440;2023-12-28T10:00:31;95978.94;;;10.66;36.79
70684;BME280;58263;48.146;11.440;2023-12-28T10:02:56;95970.81;;;10.73;36.62
70684;BME280;58263;48.146;11.440;2023-12-28T10:05:21;95965.81;;;10.76;36.35
70684;BME280;58263;48.146;11.440;2023-12-28T10:07:47;95967.88;;;10.93;35.08
70684;BME280;58263;48.146;11.440;2023-12-28T10:10:13;95968.59;;;11.00;34.83
70684;BME280;58263;48.146;11.440;2023-12-28T10:12:38;95967.16;;;11.16;35.07
70684;BME280;58263;48.146;11.440;2023-12-28T10:15:06;95972.91;;;11.31;35.22
70684;BME280;58263;48.146;11.440;2023-12-28T10:17:32;95981.28;;;11.54;35.31
70684;BME280;58263;48.146;11.440;2023-12-28T10:19:58;95977.69;;;11.72;36.25
70684;BME280;58263;48.146;11.440;2023-12-28T10:22:31;95984.44;;;11.86;37.65
70684;BME280;58263;48.146;11.440;2023-12-28T10:24:57;95982.41;;;12.00;37.75
70684;BME280;58263;48.146;11.440;2023-12-28T10:27:22;95985.69;;;12.26;37.62
70684;BME280;58263;48.146;11.440;2023-12-28T10:29:47;95979.22;;;12.27;36.46
70684;BME280;58263;48.146;11.440;2023-12-28T10:32:13;95973.56;;;12.64;36.36
70684;BME280;58263;48.146;11.440;2023-12-28T10:34:38;95970.91;;;12.52;36.55
70684;BME280;58263;48.146;11.440;2023-12-28T10:37:04;95970.59;;;12.25;36.56
70684;BME280;58263;48.146;11.440;2023-12-28T10:39:31;95959.81;;;12.01;36.64
70684;BME280;58263;48.146;11.440;2023-12-28T10:41:59;95964.97;;;12.14;37.04
70684;BME280;58263;48.146;11.440;2023-12-28T10:44:32;95963.22;;;12.20;36.95
70684;BME280;58263;48.146;11.440;2023-12-28T10:47:01;95963.94;;;12.15;37.76
70684;BME280;58263;48.146;11.440;2023-12-28T10:49:30;95968.38;;;12.22;37.25
70684;BME280;58263;48.146;11.440;2023-12-28T10:51:55;95968.94;;;12.24;37.63
70684;BME280;58263;48.146;11.440;2023-12-28T10:54:52;95963.69;;;12.05;37.32
70684;BME280;58263;48.146;11.440;2023-12-28T10:57:23;95957.81;;;11.84;37.76
70684;BME280;58263;48.146;11.440;2023-12-28T11:00:02;95953.94;;;11.80;37.60
70684;BME280;58263;48.146;11.440;2023-12-28T11:02:47;95964.47;;;11.94;37.38
70684;BME280;58263;48.146;11.440;2023-12-28T11:05:17;95947.19;;;11.90;38.00
70684;BME280;58263;48.146;11.440;2023-12-28T11:07:43;95954.06;;;11.74;37.97
70684;BME280;58263;48.146;11.440;2023-12-28T11:10:09;95941.13;;;11.82;38.31
70684;BME280;58263;48.146;11.440;2023-12-28T11:12:35;95938.88;;;11.67;38.56
70684;BME280;58263;48.146;11.440;2023-12-28T11:15:01;95941.91;;;11.83;37.90
70684;BME280;58263;48.146;11.440;2023-12-28T11:17:30;95936.44;;;11.90;38.63
70684;BME280;58263;48.146;11.440;2023-12-28T11:19:56;95929.06;;;11.73;38.24
70684;BME280;58263;48.146;11.440;2023-12-28T11:22:22;95935.59;;;11.54;38.37
70684;BME280;58263;48.146;11.440;2023-12-28T11:24:52;95928.03;;;11.74;38.40
70684;BME280;58263;48.146;11.440;2023-12-28T11:27:18;95932.44;;;11.80;39.12
70684;BME280;58263;48.146;11.440;2023-12-28T11:29:43;95920.19;;;11.73;40.89
70684;BME280;58263;48.146;11.440;2023-12-28T11:32:10;95925.44;;;11.91;39.96
70684;BME280;58263;48.146;11.440;2023-12-28T11:34:35;95925.44;;;11.91;39.74
70684;BME280;58263;48.146;11.440;2023-12-28T11:37:04;95916.31;;;12.16;38.85
70684;BME280;58263;48.146;11.440;2023-12-28T11:39:32;95915.53;;;12.15;38.90
70684;BME280;58263;48.146;11.440;2023-12-28T11:42:02;95909.44;;;11.84;38.70
70684;BME280;58263;48.146;11.440;2023-12-28T11:44:31;95912.47;;;11.88;38.66
70684;BME280;58263;48.146;11.440;2023-12-28T11:46:57;95911.31;;;12.08;38.94
70684;BME280;58263;48.146;11.440;2023-12-28T11:49:26;95912.47;;;12.12;37.92
70684;BME280;58263;48.146;11.440;2023-12-28T11:51:59;95911.91;;;12.10;38.21
70684;BME280;58263;48.146;11.440;2023-12-28T11:54:25;95917.53;;;12.08;38.09
70684;BME280;58263;48.146;11.440;2023-12-28T11:56:51;95916.13;;;12.17;38.16
70684;BME280;58263;48.146;11.440;2023-12-28T11:59:17;95908.66;;;11.96;38.60
70684;BME280;58263;48.146;11.440;2023-12-28T12:01:43;95914.00;;;12.08;38.87
70684;BME280;58263;48.146;11.440;2023-12-28T12:04:08;95905.66;;;12.33;38.49
70684;BME280;58263;48.146;11.440;2023-12-28T12:06:33;95914.97;;;12.13;38.74
70684;BME280;58263;48.146;11.440;2023-12-28T12:08:58;95907.47;;;11.92;36.79
70684;BME280;58263;48.146;11.440;2023-12-28T12:11:24;95904.06;;;11.73;36.40
70684;BME280;58263;48.146;11.440;2023-12-28T12:13:51;95906.75;;;11.61;36.31
70684;BME280;58263;48.146;11.440;2023-12-28T12:16:17;95894.84;;;11.57;36.20
70684;BME280;58263;48.146;11.440;2023-12-28T12:18:42;95890.16;;;11.64;36.38
70684;BME280;58263;48.146;11.440;2023-12-28T12:21:08;95893.06;;;11.50;36.61
70684;BME280;58263;48.146;11.440;2023-12-28T12:23:33;95891.34;;;11.56;37.13
70684;BME280;58263;48.146;11.440;2023-12-28T12:25:58;95894.59;;;11.46;36.41
70684;BME280;58263;48.146;11.440;2023-12-28T12:28:23;95895.41;;;11.35;37.22
70684;BME280;58263;48.146;11.440;2023-12-28T12:30:51;95889.81;;;11.48;37.46
70684;BME280;58263;48.146;11.440;2023-12-28T12:33:17;95889.69;;;11.43;37.66
70684;BME280;58263;48.146;11.440;2023-12-28T12:35:43;95884.66;;;11.47;37.61
70684;BME280;58263;48.146;11.440;2023-12-28T12:38:08;95889.69;;;11.43;37.66
70684;BME280;58263;48.146;11.440;2023-12-28T12:40:33;95882.78;;;11.36;37.97
70684;BME280;58263;48.146;11.440;2023-12-28T12:42:59;95882.78;;;11.24;37.16
70684;BME280;58263;48.146;11.440;2023-12-28T12:45:25;95883.00;;;11.22;38.03
70684;BME280;58263;48.146;11.440;2023-12-28T12:47:51;95880.44;;;11.15;38.69
70684;BME280;58263;48.146;11.440;2023-12-28T12:50:17;95875.63;;;11.18;38.32
70684;BME280;58263;48.146;11.440;2023-12-28T12:52:42;95879.69;;;11.08;38.54